Terminal Aerodrome Forecast
Issued by NWS

Home | Current Version | Previous Version | Graphics & Text | Print | Product List | Glossary On
Versions: 1 2 3 4 5 6 7 8 9 10 11 12 13
000
FTUS43 KIWX 261100
TAFSBN
TAF
KSBN 261134Z 2612/2712 31007KT P6SM BKN025
     FM261400 31012G20KT P6SM BKN035
     FM270000 33008KT P6SM BKN030=

USA.gov is the U.S. government's official web portal to all federal, state and local government web resources and services.